createdAt,value
2024-02-09T00:00:33.301Z,12.30
2024-02-09T00:03:01.846Z,13.43
2024-02-09T00:05:32.365Z,15.50
2024-02-09T00:08:06.623Z,12.05
2024-02-09T00:10:38.398Z,14.75
2024-02-09T00:13:06.363Z,13.90
2024-02-09T00:15:34.768Z,13.07
2024-02-09T00:18:04.848Z,12.95
2024-02-09T00:20:32.127Z,16.25
2024-02-09T00:22:59.091Z,7.60
2024-02-09T00:25:26.353Z,11.82
2024-02-09T00:30:20.523Z,8.88
2024-02-09T00:32:47.676Z,7.63
2024-02-09T00:37:41.857Z,7.95
2024-02-09T00:42:36.374Z,9.18
2024-02-09T00:45:04.120Z,7.30
2024-02-09T00:47:32.108Z,7.65
2024-02-09T00:49:59.462Z,7.43
2024-02-09T00:52:27.025Z,8.55
2024-02-09T00:54:53.901Z,9.20
2024-02-09T00:57:20.782Z,7.65
2024-02-09T00:59:47.675Z,6.72
2024-02-09T01:02:16.099Z,9.63
2024-02-09T01:04:43.426Z,9.02
2024-02-09T01:07:13.225Z,9.15
2024-02-09T01:09:40.245Z,8.02
2024-02-09T01:12:09.576Z,13.07
2024-02-09T01:14:55.506Z,9.63
2024-02-09T01:17:40.862Z,8.10
2024-02-09T01:20:26.733Z,6.53
2024-02-09T01:23:12.213Z,5.10
2024-02-09T01:25:57.841Z,4.88
2024-02-09T01:28:43.410Z,5.07
2024-02-09T01:31:28.806Z,6.82
2024-02-09T01:34:14.366Z,3.50
2024-02-09T01:36:59.744Z,4.57
2024-02-09T01:39:45.295Z,3.13
2024-02-09T01:42:30.811Z,5.80
2024-02-09T01:45:16.257Z,6.07
2024-02-09T01:48:01.901Z,4.78
2024-02-09T01:50:47.306Z,4.22
2024-02-09T01:53:32.921Z,4.65
2024-02-09T01:56:19.773Z,4.72
2024-02-09T01:59:05.766Z,6.00
2024-02-09T02:01:51.490Z,5.88
2024-02-09T02:04:37.381Z,3.42
2024-02-09T02:07:23.349Z,4.78
2024-02-09T02:10:08.929Z,6.88
2024-02-09T02:12:54.566Z,3.88
2024-02-09T02:15:40.062Z,4.03
2024-02-09T02:18:25.618Z,5.40
2024-02-09T02:21:11.196Z,5.50
2024-02-09T02:24:00.795Z,4.15
2024-02-09T02:26:46.238Z,4.13
2024-02-09T02:29:31.804Z,9.15
2024-02-09T02:32:17.370Z,4.63
2024-02-09T02:35:03.046Z,3.05
2024-02-09T02:37:48.299Z,3.25
2024-02-09T02:40:33.782Z,6.63
2024-02-09T02:43:00.541Z,7.53
2024-02-09T02:45:28.783Z,2.72
2024-02-09T02:48:14.487Z,2.65
2024-02-09T02:50:59.971Z,4.50
2024-02-09T02:53:45.484Z,2.17
2024-02-09T02:56:30.962Z,2.97
2024-02-09T02:59:16.507Z,4.65
2024-02-09T03:02:02.313Z,7.60
2024-02-09T03:04:29.300Z,4.32
2024-02-09T03:07:14.290Z,3.28
2024-02-09T03:09:42.875Z,4.78
2024-02-09T03:12:15.000Z,4.05
2024-02-09T03:14:45.577Z,3.78
2024-02-09T03:17:12.504Z,4.05
2024-02-09T03:19:39.333Z,8.15
2024-02-09T03:22:06.213Z,7.32
2024-02-09T03:24:33.034Z,3.47
2024-02-09T03:26:59.851Z,5.68
2024-02-09T03:29:30.161Z,4.78
2024-02-09T03:31:56.883Z,4.57
2024-02-09T03:34:23.810Z,4.82
2024-02-09T03:36:51.641Z,4.00
2024-02-09T03:39:18.464Z,8.50
2024-02-09T03:41:45.707Z,8.85
2024-02-09T03:44:12.457Z,5.85
2024-02-09T03:46:39.227Z,3.83
2024-02-09T03:49:06.257Z,5.40
2024-02-09T03:51:33.202Z,7.85
2024-02-09T03:54:00.757Z,7.13
2024-02-09T03:56:27.575Z,5.13
2024-02-09T03:58:54.361Z,4.85
2024-02-09T04:01:24.006Z,5.40
2024-02-09T04:03:50.926Z,6.30
2024-02-09T04:06:17.719Z,5.20
2024-02-09T04:08:44.841Z,6.35
2024-02-09T04:11:18.880Z,6.20
2024-02-09T04:13:45.674Z,6.05
2024-02-09T04:16:12.392Z,5.50
2024-02-09T04:18:39.169Z,7.82
2024-02-09T04:21:05.927Z,15.57
2024-02-09T04:23:32.699Z,11.63
2024-02-09T04:26:00.884Z,5.93
2024-02-09T04:28:27.650Z,6.13
2024-02-09T04:30:54.459Z,7.43
2024-02-09T04:33:21.229Z,6.47
2024-02-09T04:35:47.945Z,7.15
2024-02-09T04:38:17.015Z,4.75
2024-02-09T04:40:43.984Z,5.28
2024-02-09T04:43:10.835Z,5.82
2024-02-09T04:45:37.961Z,5.30
2024-02-09T04:48:05.212Z,5.45
2024-02-09T04:52:58.613Z,8.88
2024-02-09T04:55:25.533Z,11.77
2024-02-09T04:57:52.499Z,7.95
2024-02-09T05:00:20.964Z,8.13
2024-02-09T05:02:48.015Z,8.13
2024-02-09T05:05:15.152Z,6.85
2024-02-09T05:07:42.504Z,7.63
2024-02-09T05:12:36.641Z,6.68
2024-02-09T05:15:03.687Z,8.52
2024-02-09T05:17:30.444Z,8.88
2024-02-09T05:19:59.936Z,7.85
2024-02-09T05:22:29.233Z,7.78
2024-02-09T05:24:56.143Z,9.30
2024-02-09T05:27:23.017Z,7.00
2024-02-09T05:29:49.895Z,6.32
2024-02-09T05:32:16.661Z,6.05
2024-02-09T05:34:45.749Z,11.18
2024-02-09T05:37:14.234Z,6.45
2024-02-09T05:39:44.678Z,8.02
2024-02-09T05:42:11.626Z,7.13
2024-02-09T05:44:38.457Z,9.63
2024-02-09T05:47:05.226Z,19.75
2024-02-09T05:49:32.247Z,15.38
2024-02-09T05:51:59.831Z,12.02
2024-02-09T05:54:26.914Z,10.07
2024-02-09T05:56:53.806Z,12.32
2024-02-09T05:59:22.827Z,25.05
2024-02-09T06:01:50.137Z,22.02
2024-02-09T06:06:47.764Z,18.63
2024-02-09T06:09:14.871Z,17.65
2024-02-09T06:11:41.623Z,15.40
2024-02-09T06:14:10.490Z,16.77
2024-02-09T06:16:37.582Z,13.45
2024-02-09T06:19:04.478Z,17.33
2024-02-09T06:21:32.536Z,15.82
2024-02-09T06:23:59.331Z,16.65
2024-02-09T06:26:26.229Z,18.27
2024-02-09T06:28:53.829Z,15.80
2024-02-09T06:31:27.580Z,14.60
2024-02-09T06:33:57.131Z,16.63
2024-02-09T06:36:24.803Z,16.05
2024-02-09T06:38:54.209Z,12.20
2024-02-09T06:41:21.123Z,14.75
2024-02-09T06:43:48.969Z,13.23
2024-02-09T06:46:18.061Z,13.45
2024-02-09T06:48:47.666Z,15.43
2024-02-09T06:51:20.096Z,36.63
2024-02-09T06:53:47.336Z,20.77
2024-02-09T06:58:41.410Z,21.60
2024-02-09T07:01:12.203Z,18.63
2024-02-09T07:03:40.536Z,12.52
2024-02-09T07:06:09.034Z,13.48
2024-02-09T07:08:42.195Z,9.52
2024-02-09T07:11:13.075Z,9.43
2024-02-09T07:13:41.054Z,9.20
2024-02-09T07:16:08.414Z,9.60
2024-02-09T07:21:04.548Z,19.00
2024-02-09T07:23:31.307Z,15.18
2024-02-09T07:25:58.630Z,14.48
2024-02-09T07:30:52.144Z,10.93
2024-02-09T07:33:18.999Z,12.80
2024-02-09T07:35:45.867Z,16.20
2024-02-09T07:38:12.801Z,14.43
2024-02-09T07:40:39.793Z,17.98
2024-02-09T07:43:06.811Z,17.60
2024-02-09T07:45:33.644Z,17.27
2024-02-09T07:48:00.837Z,13.60
2024-02-09T07:50:27.894Z,15.32
2024-02-09T07:52:54.906Z,14.85
2024-02-09T07:55:25.050Z,13.20
2024-02-09T07:57:52.230Z,12.98
2024-02-09T08:00:20.862Z,16.92
2024-02-09T08:02:47.938Z,14.60
2024-02-09T08:05:21.856Z,17.40
2024-02-09T08:07:49.440Z,16.08
2024-02-09T08:10:16.639Z,13.90
2024-02-09T08:12:45.797Z,19.33
2024-02-09T08:15:12.816Z,13.40
2024-02-09T08:17:41.225Z,12.68
2024-02-09T08:20:10.090Z,13.40
2024-02-09T08:22:37.048Z,13.85
2024-02-09T08:25:04.124Z,13.13
2024-02-09T08:27:30.949Z,10.88
2024-02-09T08:29:57.776Z,10.65
2024-02-09T08:32:25.527Z,12.20
2024-02-09T08:34:52.669Z,9.98
2024-02-09T08:37:20.490Z,12.85
2024-02-09T08:39:47.953Z,13.82
2024-02-09T08:42:14.811Z,14.15
2024-02-09T08:44:42.070Z,13.25
2024-02-09T08:49:38.341Z,18.45
2024-02-09T08:52:06.908Z,24.52
2024-02-09T08:54:35.003Z,25.15
2024-02-09T08:57:01.771Z,25.60
2024-02-09T08:59:28.576Z,24.60
2024-02-09T09:01:55.380Z,19.88
2024-02-09T09:04:22.690Z,14.85
2024-02-09T09:06:49.570Z,14.82
2024-02-09T09:09:16.680Z,13.90
2024-02-09T09:11:43.524Z,21.38
2024-02-09T09:14:11.949Z,19.55
2024-02-09T09:16:39.759Z,19.15
2024-02-09T09:19:10.076Z,15.50
2024-02-09T09:21:39.874Z,10.27
2024-02-09T09:24:07.203Z,11.48
2024-02-09T09:29:01.403Z,13.85
2024-02-09T09:31:30.933Z,12.30
2024-02-09T09:33:58.150Z,15.27
2024-02-09T09:36:27.244Z,13.38
2024-02-09T09:38:54.564Z,12.25
2024-02-09T09:43:48.548Z,13.75
2024-02-09T09:46:20.539Z,12.52
2024-02-09T09:48:48.468Z,13.63
2024-02-09T09:51:16.550Z,12.55
2024-02-09T09:53:45.197Z,12.02
2024-02-09T09:56:13.242Z,14.18
2024-02-09T09:58:41.582Z,18.40
2024-02-09T10:01:13.172Z,13.77
2024-02-09T10:03:40.473Z,16.20
2024-02-09T10:06:07.898Z,16.80
2024-02-09T10:08:39.750Z,15.70
2024-02-09T10:11:07.996Z,12.48
2024-02-09T10:13:35.266Z,13.60
2024-02-09T10:16:04.914Z,15.65
2024-02-09T10:18:36.512Z,16.67
2024-02-09T10:21:06.429Z,16.70
2024-02-09T10:23:35.009Z,12.80
2024-02-09T10:26:07.978Z,15.15
2024-02-09T10:28:34.829Z,12.93
2024-02-09T10:31:01.925Z,14.73
2024-02-09T10:33:28.940Z,11.52
2024-02-09T10:36:00.957Z,10.07
2024-02-09T10:38:28.429Z,10.45
2024-02-09T10:40:56.268Z,14.35
2024-02-09T10:43:31.898Z,9.45
2024-02-09T10:45:59.865Z,13.23
2024-02-09T10:48:41.162Z,7.95
2024-02-09T10:51:10.160Z,8.25
2024-02-09T10:53:58.653Z,10.65
2024-02-09T11:01:24.627Z,11.35
2024-02-09T11:03:51.588Z,11.35
2024-02-09T11:06:18.872Z,9.65
2024-02-09T11:11:15.004Z,7.22
2024-02-09T11:13:41.908Z,8.10
2024-02-09T11:16:09.915Z,11.18
2024-02-09T11:18:37.350Z,11.43
2024-02-09T11:21:05.655Z,12.35
2024-02-09T11:23:41.566Z,11.77
2024-02-09T11:26:13.085Z,11.20
2024-02-09T11:28:39.902Z,10.13
2024-02-09T11:31:12.076Z,15.63
2024-02-09T11:33:42.628Z,10.75
2024-02-09T11:36:09.568Z,11.50
2024-02-09T11:38:36.368Z,10.75
2024-02-09T11:41:03.108Z,7.65
2024-02-09T11:43:32.971Z,11.80
2024-02-09T11:46:00.322Z,11.25
2024-02-09T11:50:58.507Z,11.95
2024-02-09T11:53:26.646Z,10.77
2024-02-09T11:55:54.317Z,9.02
2024-02-09T11:58:21.360Z,11.13
2024-02-09T12:00:51.913Z,8.27
2024-02-09T12:03:19.212Z,6.55
2024-02-09T12:05:47.853Z,8.05
2024-02-09T12:08:19.451Z,7.70
2024-02-09T12:10:46.599Z,8.25
2024-02-09T12:13:13.536Z,14.93
2024-02-09T12:15:40.441Z,13.00
2024-02-09T12:18:10.038Z,10.32
2024-02-09T12:20:37.310Z,11.75
2024-02-09T12:25:37.476Z,12.32
2024-02-09T12:28:11.744Z,11.15
2024-02-09T12:30:39.996Z,7.28
2024-02-09T12:33:06.896Z,8.73
2024-02-09T12:35:33.768Z,12.07
2024-02-09T12:38:02.480Z,9.00
2024-02-09T12:40:29.309Z,5.82
2024-02-09T12:42:56.431Z,5.93
2024-02-09T12:45:32.215Z,6.38
2024-02-09T12:47:59.163Z,9.25
2024-02-09T12:50:29.106Z,10.68
2024-02-09T12:52:56.461Z,5.63
2024-02-09T12:55:25.922Z,6.20
2024-02-09T12:57:56.001Z,13.02
2024-02-09T13:00:24.804Z,6.50
2024-02-09T13:02:52.105Z,6.60
2024-02-09T13:07:45.756Z,5.45
2024-02-09T13:10:13.983Z,7.10
2024-02-09T13:12:40.887Z,10.50
2024-02-09T13:15:12.795Z,7.63
2024-02-09T13:17:40.616Z,6.95
2024-02-09T13:20:09.976Z,6.90
2024-02-09T13:22:39.787Z,8.80
2024-02-09T13:25:07.080Z,7.38
2024-02-09T13:27:34.030Z,10.15
2024-02-09T13:30:00.887Z,8.95
2024-02-09T13:32:33.005Z,9.13
2024-02-09T13:35:00.216Z,7.43
2024-02-09T13:37:27.332Z,6.88
2024-02-09T13:39:54.401Z,9.13
2024-02-09T13:42:24.467Z,12.82
2024-02-09T13:44:51.286Z,9.02
2024-02-09T13:47:18.030Z,11.07
2024-02-09T13:49:45.763Z,8.07
2024-02-09T13:52:12.556Z,8.32
2024-02-09T13:54:39.309Z,9.07
2024-02-09T13:57:06.303Z,7.82
2024-02-09T13:59:33.099Z,10.10
2024-02-09T14:01:59.931Z,10.07
2024-02-09T14:04:27.316Z,9.98
2024-02-09T14:06:54.345Z,7.32
2024-02-09T14:09:21.256Z,8.32
2024-02-09T14:11:51.247Z,11.48
2024-02-09T14:14:19.743Z,8.35
2024-02-09T14:16:47.348Z,10.60
2024-02-09T14:19:14.411Z,12.50
2024-02-09T14:21:41.508Z,8.23
2024-02-09T14:24:08.677Z,10.93
2024-02-09T14:26:35.477Z,12.88
2024-02-09T14:29:03.770Z,9.57
2024-02-09T14:31:30.704Z,9.85
2024-02-09T14:33:57.579Z,13.70
2024-02-09T14:36:24.381Z,12.65
2024-02-09T14:38:51.576Z,9.07
2024-02-09T14:43:49.582Z,8.95
2024-02-09T14:46:16.554Z,8.40
2024-02-09T14:48:43.373Z,5.63
2024-02-09T14:51:10.133Z,10.15
2024-02-09T14:53:38.855Z,9.05
2024-02-09T14:56:08.626Z,10.88
2024-02-09T14:58:36.187Z,7.82
2024-02-09T15:01:03.159Z,9.45
2024-02-09T15:03:31.464Z,12.95
2024-02-09T15:05:58.269Z,11.02
2024-02-09T15:08:25.103Z,11.25
2024-02-09T15:10:51.999Z,10.57
2024-02-09T15:13:18.761Z,11.60
2024-02-09T15:15:46.052Z,15.23
2024-02-09T15:20:44.732Z,10.75
2024-02-09T15:23:13.830Z,7.90
2024-02-09T15:25:41.788Z,8.13
2024-02-09T15:28:08.765Z,14.35
2024-02-09T15:30:35.579Z,11.18
2024-02-09T15:33:02.367Z,16.70
2024-02-09T15:35:29.189Z,12.18
2024-02-09T15:37:56.023Z,9.15
2024-02-09T15:40:26.156Z,15.05
2024-02-09T15:42:53.079Z,13.13
2024-02-09T15:45:21.740Z,16.42
2024-02-09T15:47:48.592Z,19.60
2024-02-09T15:50:15.492Z,8.40
2024-02-09T15:52:42.264Z,10.13
2024-02-09T15:55:09.476Z,7.40
2024-02-09T16:00:05.860Z,14.15
2024-02-09T16:02:34.128Z,12.80
2024-02-09T16:05:01.678Z,9.93
2024-02-09T16:07:28.680Z,17.70
2024-02-09T16:09:55.495Z,8.57
2024-02-09T16:12:22.291Z,11.95
2024-02-09T16:14:49.814Z,11.52
2024-02-09T16:17:16.658Z,11.52
2024-02-09T16:19:43.464Z,17.60
2024-02-09T16:22:10.330Z,8.77
2024-02-09T16:24:37.054Z,11.27
2024-02-09T16:27:03.911Z,15.23
2024-02-09T16:29:30.642Z,9.07
2024-02-09T16:31:57.493Z,11.77
2024-02-09T16:34:24.383Z,21.45
2024-02-09T16:36:51.188Z,33.42
2024-02-09T16:39:19.557Z,24.90
2024-02-09T16:41:46.295Z,30.27
2024-02-09T16:44:13.216Z,31.90
2024-02-09T16:46:40.023Z,43.85
2024-02-09T16:49:06.936Z,37.78
2024-02-09T16:51:33.772Z,29.15
2024-02-09T16:54:00.713Z,55.00
2024-02-09T16:56:27.647Z,65.28
2024-02-09T16:58:54.604Z,52.88
2024-02-09T17:01:22.952Z,53.70
2024-02-09T17:03:51.913Z,49.00
2024-02-09T17:06:20.384Z,44.85
2024-02-09T17:08:47.257Z,36.92
2024-02-09T17:11:14.238Z,37.67
2024-02-09T17:16:08.515Z,19.75
2024-02-09T17:21:03.109Z,16.65
2024-02-09T17:23:29.964Z,13.00
2024-02-09T17:25:56.873Z,11.43
2024-02-09T17:28:23.764Z,18.23
2024-02-09T17:30:50.608Z,17.88
2024-02-09T17:33:21.638Z,12.05
2024-02-09T17:35:49.591Z,15.57
2024-02-09T17:38:16.332Z,16.23
2024-02-09T17:40:43.142Z,16.60
2024-02-09T17:43:12.257Z,16.80
2024-02-09T17:45:39.555Z,18.58
2024-02-09T17:48:07.805Z,14.40
2024-02-09T17:50:34.771Z,19.92
2024-02-09T17:53:01.577Z,24.85
2024-02-09T17:55:28.426Z,22.83
2024-02-09T17:57:55.221Z,31.42
2024-02-09T18:00:23.355Z,34.63
2024-02-09T18:02:50.101Z,27.92
2024-02-09T18:05:16.971Z,19.90
2024-02-09T18:07:43.853Z,22.35
2024-02-09T18:10:20.648Z,28.85
2024-02-09T18:12:47.576Z,39.13
2024-02-09T18:15:14.364Z,52.58
2024-02-09T18:17:41.202Z,44.40
2024-02-09T18:20:10.321Z,28.95
2024-02-09T18:22:37.909Z,25.63
2024-02-09T18:25:05.031Z,18.35
2024-02-09T18:27:32.473Z,18.17
2024-02-09T18:32:28.851Z,19.85
2024-02-09T18:34:56.185Z,20.45
2024-02-09T18:37:23.064Z,19.38
2024-02-09T18:39:49.881Z,19.85
2024-02-09T18:42:16.637Z,19.73
2024-02-09T18:44:43.603Z,10.95
2024-02-09T18:47:13.378Z,13.88
2024-02-09T18:49:41.087Z,13.68
2024-02-09T18:52:08.404Z,10.38
2024-02-09T18:57:04.703Z,16.10
2024-02-09T18:59:31.669Z,17.92
2024-02-09T19:01:59.068Z,21.13
2024-02-09T19:04:25.946Z,21.20
2024-02-09T19:06:55.115Z,22.55
2024-02-09T19:09:21.909Z,25.33
2024-02-09T19:11:49.233Z,23.08
2024-02-09T19:16:44.218Z,36.47
2024-02-09T19:19:12.311Z,28.58
2024-02-09T19:21:42.313Z,34.08
2024-02-09T19:24:13.769Z,36.67
2024-02-09T19:26:40.535Z,53.75
2024-02-09T19:29:07.272Z,108.88
2024-02-09T19:31:35.621Z,130.65
2024-02-09T19:34:04.910Z,62.63
2024-02-09T19:36:31.990Z,31.10
2024-02-09T19:39:01.399Z,26.13
2024-02-09T19:41:28.183Z,20.92
2024-02-09T19:43:55.033Z,14.77
2024-02-09T19:46:23.026Z,24.15
2024-02-09T19:48:50.790Z,20.58
2024-02-09T19:51:18.339Z,24.15
2024-02-09T19:53:45.160Z,23.45
2024-02-09T19:56:11.937Z,27.95
2024-02-09T19:58:42.127Z,22.92
2024-02-09T20:01:13.644Z,35.13
2024-02-09T20:03:42.838Z,27.00
2024-02-09T20:06:09.826Z,21.80
2024-02-09T20:08:39.425Z,11.95
2024-02-09T20:11:07.310Z,15.05
2024-02-09T20:13:35.240Z,23.15
2024-02-09T20:16:04.198Z,18.63
2024-02-09T20:18:31.923Z,23.60
2024-02-09T20:20:58.795Z,22.30
2024-02-09T20:23:25.613Z,24.90
2024-02-09T20:25:52.696Z,22.88
2024-02-09T20:30:46.356Z,23.77
2024-02-09T20:33:13.218Z,15.02
2024-02-09T20:35:40.790Z,19.85
2024-02-09T20:38:08.227Z,16.75
2024-02-09T20:40:35.755Z,17.77
2024-02-09T20:43:03.252Z,19.08
2024-02-09T20:45:30.904Z,14.93
2024-02-09T20:48:02.074Z,18.17
2024-02-09T20:50:32.101Z,14.75
2024-02-09T20:53:03.098Z,26.77
2024-02-09T20:55:33.622Z,19.50
2024-02-09T20:58:04.187Z,25.10
2024-02-09T21:00:36.175Z,21.83
2024-02-09T21:03:06.148Z,54.90
2024-02-09T21:05:36.192Z,49.17
2024-02-09T21:08:04.668Z,32.65
2024-02-09T21:10:32.291Z,31.80
2024-02-09T21:13:02.101Z,44.80
2024-02-09T21:15:31.089Z,32.15
2024-02-09T21:17:58.370Z,20.55
2024-02-09T21:20:25.300Z,18.38
2024-02-09T21:22:55.062Z,19.85
2024-02-09T21:25:22.103Z,21.40
2024-02-09T21:27:50.151Z,25.52
2024-02-09T21:30:20.069Z,26.88
2024-02-09T21:32:47.788Z,27.23
2024-02-09T21:35:14.633Z,27.15
2024-02-09T21:37:43.538Z,28.48
2024-02-09T21:40:10.949Z,28.63
2024-02-09T21:42:38.620Z,36.83
2024-02-09T21:45:06.158Z,35.85
2024-02-09T21:47:40.688Z,25.33
2024-02-09T21:50:08.449Z,28.35
2024-02-09T21:52:35.987Z,18.15
2024-02-09T21:55:02.895Z,18.02
2024-02-09T21:57:29.968Z,20.08
2024-02-09T21:59:57.802Z,16.08
2024-02-09T22:02:28.967Z,17.88
2024-02-09T22:04:56.288Z,22.52
2024-02-09T22:09:50.725Z,20.98
2024-02-09T22:12:27.728Z,17.27
2024-02-09T22:14:56.996Z,13.85
2024-02-09T22:17:25.564Z,17.58
2024-02-09T22:19:59.551Z,21.45
2024-02-09T22:22:27.237Z,16.73
2024-02-09T22:24:54.144Z,18.38
2024-02-09T22:27:20.967Z,20.05
2024-02-09T22:29:50.608Z,21.10
2024-02-09T22:32:17.434Z,23.15
2024-02-09T22:34:45.455Z,23.92
2024-02-09T22:37:13.946Z,30.50
2024-02-09T22:39:45.265Z,29.52
2024-02-09T22:42:12.936Z,26.40
2024-02-09T22:44:42.620Z,23.60
2024-02-09T22:47:17.006Z,19.90
2024-02-09T22:49:45.527Z,17.35
2024-02-09T22:52:14.158Z,16.92
2024-02-09T22:54:44.533Z,22.70
2024-02-09T22:57:15.748Z,20.27
2024-02-09T22:59:42.577Z,16.83
2024-02-09T23:02:09.769Z,20.83
2024-02-09T23:07:05.802Z,18.92
2024-02-09T23:09:32.824Z,14.27
2024-02-09T23:11:59.976Z,15.80
2024-02-09T23:14:26.999Z,18.10
2024-02-09T23:16:54.272Z,14.95
2024-02-09T23:19:25.732Z,12.88
2024-02-09T23:21:54.609Z,16.95
2024-02-09T23:24:23.121Z,19.70
2024-02-09T23:26:57.658Z,14.77
2024-02-09T23:29:25.578Z,14.13
2024-02-09T23:31:57.004Z,12.27
2024-02-09T23:34:24.264Z,16.08
2024-02-09T23:39:18.774Z,12.82
2024-02-09T23:41:46.649Z,11.68
2024-02-09T23:44:21.860Z,10.88
2024-02-09T23:46:48.978Z,14.50
2024-02-09T23:49:19.302Z,17.17
2024-02-09T23:51:47.482Z,16.60
2024-02-09T23:54:16.096Z,13.32
2024-02-09T23:56:45.694Z,9.88
2024-02-09T23:59:13.346Z,7.38
